Time;durP1;ratioP1;P1;durP2;ratioP2;P2;SDS_P1;SDS_P2;PMS_P1;PMS_P2;Temp;Humidity;BMP_temperature;BMP_pressure;BME280_temperature;BME280_humidity;BME280_pressure;Samples;Min_cycle;Max_cycle;Signal;HPM_P1;HPM_P2
2021/07/24 00:00:05;;;;;;;10.02;7.93;;;;;;;18.22;71.09;95066.72;5108556;27;20524;-69
2021/07/24 00:02:33;;;;;;;9.90;8.95;;;;;;;18.25;71.15;95064.34;5108548;27;20039;-69
2021/07/24 00:05:00;;;;;;;9.30;8.40;;;;;;;18.24;70.92;95061.97;5108368;28;20049;-69
2021/07/24 00:07:26;;;;;;;10.75;8.27;;;;;;;18.24;71.02;95059.34;5107367;28;20052;-69
2021/07/24 00:09:53;;;;;;;10.32;8.18;;;;;;;18.17;71.59;95062.28;5106888;28;20058;-69
2021/07/24 00:12:20;;;;;;;11.85;8.55;;;;;;;18.14;70.47;95058.34;5107208;28;20039;-69
2021/07/24 00:14:47;;;;;;;9.65;8.65;;;;;;;18.19;70.60;95059.41;5108413;27;20825;-69
2021/07/24 00:17:14;;;;;;;10.23;8.57;;;;;;;18.19;70.94;95059.41;5107115;28;20416;-68
2021/07/24 00:19:41;;;;;;;8.77;7.72;;;;;;;18.19;70.71;95059.41;5108333;28;20172;-66
2021/07/24 00:22:07;;;;;;;10.50;8.55;;;;;;;18.15;70.43;95053.88;5108043;27;20044;-67
2021/07/24 00:24:34;;;;;;;9.50;8.05;;;;;;;18.12;70.59;95055.19;5107715;27;20054;-66
2021/07/24 00:27:01;;;;;;;8.73;7.85;;;;;;;18.06;70.60;95066.03;5108105;28;20044;-66
2021/07/24 00:29:28;;;;;;;10.68;8.38;;;;;;;18.01;70.22;95058.97;5107978;27;20051;-66
2021/07/24 00:31:54;;;;;;;9.73;8.13;;;;;;;18.03;70.33;95059.47;5107799;28;20063;-66
2021/07/24 00:34:21;;;;;;;9.85;8.20;;;;;;;18.03;70.63;95064.75;5107930;28;20406;-69
2021/07/24 00:36:48;;;;;;;9.95;8.15;;;;;;;18.00;70.85;95062.63;5108129;27;20209;-69
2021/07/24 00:39:15;;;;;;;12.18;7.75;;;;;;;17.69;71.74;95060.13;5107745;28;20058;-69
2021/07/24 00:41:47;;;;;;;14.27;8.20;;;;;;;17.38;74.55;95068.13;5107398;28;20039;-69
2021/07/24 00:44:20;;;;;;;9.68;8.25;;;;;;;17.18;75.32;95068.97;5107239;27;20039;-69
2021/07/24 00:46:48;;;;;;;10.32;9.13;;;;;;;17.02;76.62;95064.00;5090836;27;20509;-69
2021/07/24 00:49:17;;;;;;;10.80;8.73;;;;;;;17.02;76.58;95058.75;5107715;27;20119;-69
2021/07/24 00:51:54;;;;;;;17.70;8.57;;;;;;;17.08;75.68;95058.44;5107545;27;20047;-69
2021/07/24 00:54:21;;;;;;;9.45;8.30;;;;;;;17.12;75.95;95058.72;5107330;28;20162;-69
2021/07/24 00:56:50;;;;;;;11.88;8.48;;;;;;;17.09;75.51;95060.03;5107477;27;20047;-69
2021/07/24 00:59:17;;;;;;;13.27;9.65;;;;;;;17.13;75.33;95060.28;5108104;28;20489;-69
2021/07/24 01:01:46;;;;;;;12.02;8.25;;;;;;;17.06;76.43;95070.31;5107512;28;20829;-69
2021/07/24 01:04:13;;;;;;;12.40;8.35;;;;;;;16.98;77.39;95064.53;5107409;27;20059;-69
2021/07/24 01:06:40;;;;;;;13.68;8.95;;;;;;;17.00;77.30;95067.69;5108929;27;20058;-69
2021/07/24 01:09:10;;;;;;;16.35;8.45;;;;;;;17.03;76.03;95055.03;5107180;27;20035;-69
2021/07/24 01:11:36;;;;;;;9.68;8.57;;;;;;;17.05;75.25;95060.81;5106955;28;20697;-69
2021/07/24 01:14:04;;;;;;;10.02;7.90;;;;;;;17.05;75.20;95064.25;5108316;27;20119;-69
2021/07/24 01:16:31;;;;;;;9.88;8.30;;;;;;;17.01;74.81;95063.19;5104641;28;20519;-69
2021/07/24 01:19:12;;;;;;;10.65;8.60;;;;;;;16.96;75.46;95058.75;5087464;28;20051;-69
2021/07/24 01:21:44;;;;;;;12.32;8.18;;;;;;;16.92;75.70;95060.31;5105843;28;20078;-68
2021/07/24 01:24:11;;;;;;;10.68;8.68;;;;;;;16.92;76.57;95064.78;5106832;28;20092;-68
2021/07/24 01:26:43;;;;;;;12.43;8.55;;;;;;;16.90;76.91;95062.41;5087951;28;20082;-68
2021/07/24 01:29:16;;;;;;;10.82;7.82;;;;;;;16.94;76.07;95058.22;5108304;27;20041;-68
2021/07/24 01:31:45;;;;;;;12.15;8.60;;;;;;;16.62;78.83;95064.50;5088527;28;20043;-68
2021/07/24 01:34:13;;;;;;;11.57;8.05;;;;;;;16.41;79.08;95047.16;5088306;28;20106;-69
2021/07/24 01:36:40;;;;;;;9.05;7.97;;;;;;;16.56;78.24;95052.41;5108501;27;20551;-68
2021/07/24 01:39:09;;;;;;;11.50;7.97;;;;;;;16.60;76.97;95053.47;5106832;28;20043;-68
2021/07/24 01:41:45;;;;;;;10.35;8.65;;;;;;;16.68;76.31;95060.03;5088312;28;20050;-68
2021/07/24 01:44:14;;;;;;;12.43;8.23;;;;;;;16.68;77.09;95048.75;5106704;28;20040;-68
2021/07/24 01:46:43;;;;;;;9.13;7.60;;;;;;;16.62;76.18;95045.31;5106626;27;20073;-68
2021/07/24 01:52:47;;;;;;;11.63;7.47;;;;;;;16.67;77.30;95041.88;5105074;28;20402;-68
2021/07/24 01:55:34;;;;;;;11.85;8.13;;;;;;;16.52;77.55;95029.53;5064736;28;20040;-69
2021/07/24 01:58:19;;;;;;;10.07;7.30;;;;;;;16.58;77.35;95034.53;5064243;28;20498;-68
2021/07/24 02:00:55;;;;;;;9.23;7.07;;;;;;;16.62;75.82;95040.84;5063237;28;20498;-68
2021/07/24 02:03:44;;;;;;;10.75;7.55;;;;;;;16.61;75.49;95039.25;5063328;28;20133;-68
2021/07/24 02:06:29;;;;;;;8.10;6.60;;;;;;;16.48;76.17;95036.38;5064809;28;20114;-68
2021/07/24 02:09:08;;;;;;;8.00;6.78;;;;;;;16.47;76.95;95042.69;5064766;28;20577;-68
2021/07/24 02:11:37;;;;;;;7.57;6.78;;;;;;;16.38;77.97;95039.78;5063857;28;20047;-68
2021/07/24 02:14:05;;;;;;;9.43;6.82;;;;;;;16.47;77.70;95032.94;5064082;28;20583;-68
2021/07/24 02:16:35;;;;;;;8.52;6.32;;;;;;;16.46;77.75;95036.66;5064047;28;20045;-68
2021/07/24 02:19:02;;;;;;;13.00;6.85;;;;;;;16.47;77.83;95042.69;5064202;28;20045;-68
2021/07/24 02:21:41;;;;;;;8.63;6.05;;;;;;;16.52;77.46;95040.84;5063359;28;20516;-68
2021/07/24 02:24:09;;;;;;;8.77;5.90;;;;;;;16.63;76.69;95041.63;5064054;28;20730;-68
2021/07/24 02:26:44;;;;;;;9.27;6.53;;;;;;;16.76;75.93;95045.56;5064040;28;20045;-68
2021/07/24 02:29:12;;;;;;;7.53;6.28;;;;;;;16.86;75.32;95045.59;5063706;28;20077;-68
2021/07/24 02:31:39;;;;;;;9.55;6.90;;;;;;;16.81;74.80;95037.69;5065416;28;20040;-68
2021/07/24 02:34:11;;;;;;;12.95;6.80;;;;;;;16.75;75.01;95044.00;5063187;28;20044;-68
2021/07/24 02:36:37;;;;;;;10.98;7.07;;;;;;;16.73;76.00;95046.13;5063953;28;20072;-68
2021/07/24 02:39:04;;;;;;;8.93;7.03;;;;;;;16.76;76.27;95046.38;5065335;28;20502;-68
2021/07/24 02:41:31;;;;;;;8.65;6.60;;;;;;;16.77;76.52;95047.16;5063773;28;20131;-68
2021/07/24 02:43:58;;;;;;;12.35;6.40;;;;;;;16.84;76.45;95045.06;5065156;28;20070;-68
2021/07/24 02:46:25;;;;;;;10.40;7.05;;;;;;;16.78;76.55;95043.44;5066664;28;20049;-68
2021/07/24 02:48:53;;;;;;;11.27;7.05;;;;;;;16.84;76.38;95049.56;5066708;28;20079;-68
2021/07/24 02:51:30;;;;;;;9.40;7.55;;;;;;;16.72;75.54;95036.63;5066901;28;20045;-68
2021/07/24 02:53:58;;;;;;;8.45;6.32;;;;;;;16.74;75.99;95040.56;5093997;28;20044;-68
2021/07/24 02:56:27;;;;;;;11.82;7.50;;;;;;;16.79;76.39;95050.31;5091606;28;20394;-68
2021/07/24 02:58:54;;;;;;;9.82;6.93;;;;;;;16.73;75.89;95048.75;5091305;28;20047;-68
2021/07/24 03:01:21;;;;;;;10.02;7.35;;;;;;;16.64;76.11;95048.47;5110084;27;20089;-68
2021/07/24 03:03:48;;;;;;;12.75;6.60;;;;;;;16.62;75.36;95051.38;5110038;28;20039;-68
2021/07/24 03:06:15;;;;;;;11.75;6.40;;;;;;;16.60;74.59;95050.84;5109818;27;20114;-68
2021/07/24 03:08:41;;;;;;;7.75;6.82;;;;;;;16.53;75.14;95047.69;5109866;28;20035;-68
2021/07/24 03:11:08;;;;;;;10.18;7.93;;;;;;;16.47;76.27;95053.19;5110035;28;21545;-68
2021/07/24 03:13:35;;;;;;;11.68;6.55;;;;;;;16.46;77.46;95057.69;5110002;28;20050;-68
2021/07/24 03:16:02;;;;;;;11.57;7.03;;;;;;;16.39;77.86;95046.63;5109813;27;20067;-68
2021/07/24 03:18:29;;;;;;;10.18;7.20;;;;;;;16.29;78.33;95051.88;5108206;28;20075;-68
2021/07/24 03:20:56;;;;;;;11.40;6.95;;;;;;;16.30;78.63;95053.47;5109041;27;20054;-68
2021/07/24 03:23:22;;;;;;;15.52;8.55;;;;;;;16.27;78.91;95053.97;5109351;28;20071;-68
2021/07/24 03:25:49;;;;;;;17.85;8.30;;;;;;;16.14;79.70;95056.06;5093839;28;20039;-68
2021/07/24 03:28:16;;;;;;;17.98;8.98;;;;;;;16.10;79.39;95055.00;5109026;28;20036;-68
2021/07/24 03:30:43;;;;;;;14.65;7.57;;;;;;;15.92;80.22;95052.81;5109417;28;20533;-68
2021/07/24 03:33:10;;;;;;;13.98;9.40;;;;;;;15.83;80.68;95053.34;5108913;28;20519;-68
2021/07/24 03:35:36;;;;;;;14.18;8.80;;;;;;;15.71;81.10;95055.38;5109026;28;20397;-68
2021/07/24 03:38:04;;;;;;;12.10;7.93;;;;;;;15.66;81.61;95060.59;5109059;28;20044;-68
2021/07/24 03:40:31;;;;;;;16.08;8.13;;;;;;;15.60;82.30;95064.25;5108958;27;20050;-68
2021/07/24 03:42:58;;;;;;;13.63;8.00;;;;;;;15.57;81.91;95062.91;5108690;27;20467;-68
2021/07/24 03:45:25;;;;;;;18.85;8.45;;;;;;;15.52;82.23;95062.94;5090649;28;20048;-68
2021/07/24 03:47:52;;;;;;;13.18;7.53;;;;;;;15.46;83.03;95069.97;5107923;27;20087;-68
2021/07/24 03:50:19;;;;;;;18.38;11.13;;;;;;;15.45;83.00;95072.88;5089610;28;20043;-68
2021/07/24 03:52:45;;;;;;;16.33;10.90;;;;;;;15.40;84.16;95071.00;5108391;27;21512;-68
2021/07/24 03:55:12;;;;;;;13.13;10.00;;;;;;;15.31;84.65;95069.91;5108768;27;20772;-68
2021/07/24 03:57:39;;;;;;;12.25;10.57;;;;;;;15.32;85.02;95071.47;5108043;27;20051;-68
2021/07/24 04:00:06;;;;;;;19.73;10.15;;;;;;;15.38;85.08;95075.72;5090211;28;20040;-68
2021/07/24 04:02:42;;;;;;;13.77;8.73;;;;;;;15.48;84.60;95081.03;5107838;27;20142;-68
2021/07/24 04:05:11;;;;;;;15.00;9.23;;;;;;;15.42;83.69;95086.50;5108608;27;20047;-68
2021/07/24 04:07:38;;;;;;;14.45;10.18;;;;;;;15.41;84.30;95092.78;5108380;27;20040;-68
2021/07/24 04:10:08;;;;;;;11.45;10.18;;;;;;;15.37;84.64;95084.63;5108305;28;20101;-68
2021/07/24 04:12:36;;;;;;;12.98;11.20;;;;;;;15.34;85.17;95100.91;5108441;28;20051;-68
2021/07/24 04:15:04;;;;;;;16.13;10.25;;;;;;;15.29;85.46;95095.59;5090131;28;20525;-69
2021/07/24 04:17:32;;;;;;;16.20;10.82;;;;;;;15.35;85.79;95101.69;5108326;27;20501;-69
2021/07/24 04:19:59;;;;;;;16.92;11.73;;;;;;;15.42;85.99;95103.03;5107130;27;20109;-68
2021/07/24 04:22:25;;;;;;;17.17;10.07;;;;;;;15.39;86.38;95108.78;5107145;27;20043;-68
2021/07/24 04:24:52;;;;;;;18.05;10.82;;;;;;;15.40;86.31;95099.88;5107751;27;20073;-68
2021/07/24 04:27:19;;;;;;;21.65;11.65;;;;;;;15.36;87.29;95093.56;5107603;28;20043;-68
2021/07/24 04:29:46;;;;;;;18.90;13.80;;;;;;;15.41;88.63;95109.34;5106915;28;20142;-68
2021/07/24 04:32:13;;;;;;;24.98;15.00;;;;;;;15.48;89.77;95101.22;5106409;27;20047;-68
2021/07/24 04:34:39;;;;;;;25.02;16.80;;;;;;;15.47;91.22;95105.69;5108144;28;20040;-68
2021/07/24 04:37:06;;;;;;;22.15;16.75;;;;;;;15.52;91.72;95104.94;5107423;27;20046;-68
2021/07/24 04:39:33;;;;;;;21.52;16.48;;;;;;;15.58;92.07;95103.13;5107823;28;20051;-68
2021/07/24 04:42:00;;;;;;;20.85;17.55;;;;;;;15.60;92.22;95103.66;5107436;28;20878;-69
2021/07/24 04:44:27;;;;;;;21.08;17.65;;;;;;;15.69;91.86;95099.47;5108751;27;20043;-68
2021/07/24 04:46:53;;;;;;;22.65;17.38;;;;;;;15.68;93.37;95097.88;5106959;27;20406;-69
2021/07/24 04:49:20;;;;;;;19.95;17.38;;;;;;;15.73;92.89;95108.41;5107339;28;20043;-68
2021/07/24 04:51:47;;;;;;;19.42;17.35;;;;;;;15.78;92.86;95105.84;5106926;28;20039;-69
2021/07/24 04:54:14;;;;;;;21.38;16.55;;;;;;;15.85;92.62;95101.16;5107177;28;20397;-68
2021/07/24 04:56:41;;;;;;;22.45;16.63;;;;;;;15.88;92.77;95109.56;5106862;28;20420;-68
2021/07/24 04:59:09;;;;;;;18.70;15.77;;;;;;;15.95;92.58;95104.84;5106897;28;20043;-68
2021/07/24 05:01:36;;;;;;;20.98;18.02;;;;;;;15.97;92.22;95102.75;5107207;28;20040;-69
2021/07/24 05:04:03;;;;;;;18.02;15.88;;;;;;;16.07;91.58;95102.78;5105942;28;20532;-69
2021/07/24 05:06:31;;;;;;;20.40;16.92;;;;;;;16.16;91.38;95101.25;5105679;28;20131;-69
2021/07/24 05:08:58;;;;;;;32.67;16.67;;;;;;;16.25;90.99;95104.94;5106169;28;20508;-68
2021/07/24 05:11:25;;;;;;;19.02;16.73;;;;;;;16.34;90.64;95107.06;5106865;27;20134;-68
2021/07/24 05:13:52;;;;;;;20.20;15.60;;;;;;;16.37;90.26;95106.56;5105911;28;20051;-68
2021/07/24 05:16:19;;;;;;;17.42;15.40;;;;;;;16.42;89.73;95103.91;5106815;28;20044;-69
2021/07/24 05:18:46;;;;;;;17.92;16.02;;;;;;;16.50;89.53;95106.03;5106462;27;20112;-69
2021/07/24 05:21:19;;;;;;;17.88;14.85;;;;;;;16.62;89.79;95103.19;5107654;27;20051;-69
2021/07/24 05:23:46;;;;;;;25.50;15.88;;;;;;;16.74;89.00;95105.53;5108615;27;20039;-69
2021/07/24 05:26:15;;;;;;;19.02;13.60;;;;;;;16.82;88.17;95102.41;5109326;27;20035;-69
2021/07/24 05:28:43;;;;;;;22.80;14.52;;;;;;;16.84;87.75;95100.31;5108079;28;20035;-69
2021/07/24 05:31:20;;;;;;;15.45;13.85;;;;;;;16.94;86.90;95102.13;5109999;27;20039;-69
2021/07/24 05:33:47;;;;;;;23.23;14.32;;;;;;;17.03;86.13;95107.66;5112822;27;20047;-69
2021/07/24 05:36:14;;;;;;;17.42;13.60;;;;;;;17.08;86.12;95107.66;5116952;27;20050;-68
2021/07/24 05:38:41;;;;;;;19.58;14.00;;;;;;;17.16;86.04;95107.13;5113343;27;20050;-68
2021/07/24 05:41:08;;;;;;;18.23;12.90;;;;;;;17.27;84.83;95113.97;5110404;27;20039;-69
2021/07/24 05:43:35;;;;;;;14.77;12.43;;;;;;;17.32;84.19;95106.06;5089667;28;20044;-69
2021/07/24 05:46:02;;;;;;;15.05;12.40;;;;;;;17.44;83.76;95102.34;5106487;28;20036;-68
2021/07/24 05:48:28;;;;;;;23.10;12.68;;;;;;;17.50;84.98;95112.59;5109114;27;20777;-69
2021/07/24 05:50:55;;;;;;;17.00;11.27;;;;;;;17.62;84.70;95104.41;5106147;28;20459;-69
2021/07/24 05:53:22;;;;;;;13.38;11.98;;;;;;;17.75;83.16;95103.84;5091263;27;20047;-69
2021/07/24 05:55:50;;;;;;;18.35;12.15;;;;;;;17.81;83.12;95101.97;5109637;27;20052;-69
2021/07/24 05:58:17;;;;;;;15.90;11.52;;;;;;;17.96;82.06;95103.78;5107931;28;20524;-69
2021/07/24 06:00:44;;;;;;;27.25;11.95;;;;;;;18.08;81.58;95101.63;5107201;27;20424;-69
2021/07/24 06:03:11;;;;;;;15.27;11.18;;;;;;;18.15;81.87;95107.38;5107893;27;20040;-69
2021/07/24 06:05:37;;;;;;;14.82;11.25;;;;;;;18.23;81.69;95098.09;5107315;28;20427;-69
2021/07/24 06:08:04;;;;;;;14.02;10.65;;;;;;;18.32;78.53;95099.09;5108190;27;20038;-69
2021/07/24 06:10:31;;;;;;;12.02;10.30;;;;;;;18.36;78.42;95107.25;5108854;27;20031;-69
2021/07/24 06:12:58;;;;;;;12.20;9.40;;;;;;;18.40;78.84;95108.31;5107683;27;20034;-69
2021/07/24 06:15:25;;;;;;;12.93;10.57;;;;;;;18.48;78.56;95107.72;5088445;28;20039;-69
2021/07/24 06:17:52;;;;;;;16.63;10.30;;;;;;;18.61;77.79;95110.78;5106904;27;20040;-69
2021/07/24 06:20:18;;;;;;;11.52;10.30;;;;;;;18.71;76.66;95113.38;5108670;27;20050;-69
2021/07/24 06:22:45;;;;;;;11.02;9.70;;;;;;;18.84;76.16;95118.03;5106718;28;20062;-69
2021/07/24 06:25:12;;;;;;;15.68;8.95;;;;;;;18.98;75.65;95112.13;5109469;27;20036;-69
2021/07/24 06:27:42;;;;;;;12.38;9.20;;;;;;;19.05;73.46;95109.94;5103935;28;20065;-68
2021/07/24 06:30:10;;;;;;;13.00;9.23;;;;;;;19.21;73.09;95113.25;5104713;28;20421;-69
2021/07/24 06:32:37;;;;;;;12.23;8.15;;;;;;;19.24;72.08;95110.84;5104997;28;20114;-68
2021/07/24 06:35:05;;;;;;;13.18;8.00;;;;;;;19.47;72.69;95121.72;5104589;28;20043;-69
2021/07/24 06:37:31;;;;;;;15.98;8.10;;;;;;;19.63;72.39;95117.84;5105527;28;20493;-69
2021/07/24 06:39:58;;;;;;;14.23;8.00;;;;;;;19.79;70.83;95115.06;5104999;28;20044;-69
2021/07/24 06:42:25;;;;;;;21.35;8.43;;;;;;;19.93;72.04;95113.28;5104923;28;20036;-69
2021/07/24 06:44:53;;;;;;;14.75;7.55;;;;;;;20.06;70.39;95114.50;5104389;28;20051;-69
2021/07/24 06:47:21;;;;;;;9.95;7.72;;;;;;;20.02;68.93;95098.41;5104327;28;20492;-69
2021/07/24 06:49:49;;;;;;;12.95;6.20;;;;;;;20.17;67.94;95112.50;5105221;28;20127;-70
2021/07/24 06:52:15;;;;;;;10.15;6.75;;;;;;;20.27;67.41;95112.34;5086149;28;20057;-69
2021/07/24 06:54:42;;;;;;;9.27;6.95;;;;;;;20.44;67.59;95115.28;5086246;28;20054;-69
2021/07/24 06:57:09;;;;;;;9.65;7.13;;;;;;;20.57;67.50;95107.72;5105442;28;20051;-69
2021/07/24 06:59:37;;;;;;;11.52;6.60;;;;;;;20.72;65.51;95101.44;5105678;28;20071;-70
2021/07/24 07:02:05;;;;;;;8.95;6.88;;;;;;;20.95;65.45;95102.41;5104530;28;21680;-69
2021/07/24 07:04:32;;;;;;;8.90;6.53;;;;;;;20.95;64.30;95097.88;5104376;28;20031;-69
2021/07/24 07:06:59;;;;;;;11.20;6.53;;;;;;;21.02;64.68;95102.81;5106051;28;20040;-70
2021/07/24 07:09:26;;;;;;;12.50;5.88;;;;;;;21.11;63.24;95095.75;5087039;28;20050;-69
2021/07/24 07:11:59;;;;;;;7.15;5.60;;;;;;;21.14;62.31;95103.13;5105789;28;20055;-69
2021/07/24 07:14:27;;;;;;;13.87;6.37;;;;;;;21.29;62.80;95090.72;5104523;28;20035;-70
2021/07/24 07:16:54;;;;;;;12.88;6.85;;;;;;;21.48;62.51;95094.09;5105612;28;20155;-70
2021/07/24 07:19:22;;;;;;;12.93;6.05;;;;;;;21.67;63.28;95099.28;5104061;28;20047;-69
2021/07/24 07:21:49;;;;;;;12.77;7.25;;;;;;;21.81;63.08;95096.66;5086953;28;20071;-70
2021/07/24 07:24:16;;;;;;;16.35;6.80;;;;;;;21.78;62.84;95097.22;5105384;28;20043;-69
2021/07/24 07:26:45;;;;;;;11.25;5.80;;;;;;;21.88;60.34;95091.75;5106423;28;20055;-70
2021/07/24 07:29:12;;;;;;;17.85;5.82;;;;;;;22.07;59.48;95093.47;5106551;28;20406;-69
2021/07/24 07:31:38;;;;;;;11.32;6.22;;;;;;;22.17;60.75;95093.28;5105600;28;20031;-70
2021/07/24 07:34:06;;;;;;;11.73;6.10;;;;;;;22.31;59.62;95086.09;5090858;28;20069;-71
2021/07/24 07:36:32;;;;;;;6.90;5.28;;;;;;;22.46;60.85;95100.13;5108965;27;20146;-70
2021/07/24 07:38:59;;;;;;;10.52;5.50;;;;;;;22.66;58.12;95083.72;5109298;27;20100;-71
2021/07/24 07:41:26;;;;;;;7.18;4.47;;;;;;;22.91;56.92;95094.81;5108751;27;20113;-70
2021/07/24 07:43:53;;;;;;;7.40;4.47;;;;;;;22.96;53.03;95094.72;5110660;27;20036;-70
2021/07/24 07:46:20;;;;;;;6.75;4.53;;;;;;;23.25;53.17;95093.50;5110988;27;20035;-70
2021/07/24 07:48:47;;;;;;;7.43;4.53;;;;;;;23.38;53.83;95091.84;5093744;27;20050;-70
2021/07/24 07:51:14;;;;;;;10.75;4.68;;;;;;;23.45;54.60;95082.31;5110640;27;20128;-70
2021/07/24 07:53:41;;;;;;;7.03;4.50;;;;;;;23.72;52.24;95085.09;5107805;27;20433;-71
2021/07/24 07:56:11;;;;;;;12.50;4.85;;;;;;;23.81;50.12;95088.59;5110647;27;20191;-70
2021/07/24 07:58:38;;;;;;;7.20;5.30;;;;;;;23.89;50.77;95084.38;5109106;27;20040;-71
2021/07/24 08:01:12;;;;;;;11.25;4.32;;;;;;;24.24;51.87;95085.22;5112561;27;20425;-71
2021/07/24 08:03:40;;;;;;;9.95;4.80;;;;;;;24.27;47.94;95083.81;5109329;28;20070;-70
2021/07/24 08:06:07;;;;;;;7.53;3.80;;;;;;;23.97;48.69;95088.94;5109029;28;20042;-70
2021/07/24 08:08:34;;;;;;;12.65;4.60;;;;;;;23.92;47.83;95078.44;5108358;28;20043;-70
2021/07/24 08:11:01;;;;;;;12.23;4.40;;;;;;;24.04;47.89;95091.94;5109803;27;20513;-71
2021/07/24 08:13:28;;;;;;;7.70;4.40;;;;;;;23.87;48.80;95082.03;5109032;27;20044;-70
2021/07/24 08:15:55;;;;;;;11.35;4.80;;;;;;;23.92;52.72;95083.75;5109182;27;20058;-71
2021/07/24 08:18:22;;;;;;;12.13;4.47;;;;;;;23.97;48.56;95086.28;5106462;27;20035;-70
2021/07/24 08:20:49;;;;;;;13.00;4.75;;;;;;;24.09;46.55;95083.00;5106544;28;20040;-71
2021/07/24 08:23:16;;;;;;;7.22;4.60;;;;;;;24.42;46.70;95075.38;5108862;28;20031;-71
2021/07/24 08:25:43;;;;;;;10.88;5.13;;;;;;;24.63;46.11;95085.44;5108781;27;20032;-71
2021/07/24 08:28:11;;;;;;;11.02;5.05;;;;;;;24.45;45.38;95074.75;5108268;27;20528;-71
2021/07/24 08:30:38;;;;;;;11.75;4.63;;;;;;;24.69;43.70;95079.63;5109203;27;20050;-71
2021/07/24 08:33:05;;;;;;;6.18;4.78;;;;;;;24.81;46.81;95071.00;5107899;27;20040;-71
2021/07/24 08:35:32;;;;;;;7.35;4.47;;;;;;;25.02;45.56;95081.00;5107909;28;20054;-69
2021/07/24 08:37:59;;;;;;;10.32;5.00;;;;;;;24.94;47.45;95075.38;5107992;27;20448;-69
2021/07/24 08:40:26;;;;;;;8.82;4.85;;;;;;;25.13;45.41;95084.88;5107043;28;20043;-69
2021/07/24 08:43:02;;;;;;;8.27;5.28;;;;;;;25.23;46.00;95087.22;5103280;28;20051;-70
2021/07/24 08:45:29;;;;;;;10.75;6.10;;;;;;;25.26;44.28;95081.25;5104489;28;20066;-69
2021/07/24 08:47:57;;;;;;;7.07;4.65;;;;;;;25.44;45.39;95091.88;5106458;27;20073;-70
2021/07/24 08:50:24;;;;;;;12.30;5.75;;;;;;;25.40;46.73;95099.75;5104613;28;20054;-70
2021/07/24 08:52:54;;;;;;;15.60;5.35;;;;;;;25.28;48.32;95100.41;5105559;27;20047;-69
2021/07/24 08:55:23;;;;;;;21.38;8.15;;;;;;;24.89;56.30;95104.84;5107046;27;20132;-69
2021/07/24 08:57:52;;;;;;;26.92;12.27;;;;;;;24.39;58.35;95110.59;5105036;27;20060;-69
2021/07/24 09:00:21;;;;;;;27.42;10.48;;;;;;;23.65;64.26;95112.13;5106149;27;20043;-70
2021/07/24 09:02:51;;;;;;;28.42;10.18;;;;;;;22.69;72.24;95120.28;5106397;27;20050;-71
2021/07/24 09:05:19;;;;;;;40.25;11.25;;;;;;;22.32;75.52;95118.72;5091022;27;20477;-72
2021/07/24 09:07:48;;;;;;;25.17;7.85;;;;;;;21.53;72.16;95128.44;5088345;28;20068;-70
2021/07/24 09:10:18;;;;;;;38.70;11.77;;;;;;;21.34;77.29;95135.66;5111325;27;20035;-72
2021/07/24 09:12:49;;;;;;;56.30;13.45;;;;;;;20.77;79.06;95144.47;5106646;27;20056;-72
2021/07/24 09:15:17;;;;;;;31.25;15.88;;;;;;;20.43;82.96;95140.16;5106557;27;20058;-70
2021/07/24 09:17:45;;;;;;;33.50;9.90;;;;;;;20.38;83.92;95145.53;5087303;27;20050;-71
2021/07/24 09:20:13;;;;;;;33.03;13.40;;;;;;;19.64;89.50;95151.13;5104782;28;20058;-73
2021/07/24 09:22:41;;;;;;;28.02;11.25;;;;;;;19.43;89.25;95139.97;5107460;27;20425;-71
2021/07/24 09:25:15;;;;;;;19.90;9.85;;;;;;;19.39;83.52;95144.25;5107173;27;20044;-71
2021/07/24 09:27:46;;;;;;;25.55;10.93;;;;;;;19.38;84.63;95147.94;5108740;27;20501;-71
2021/07/24 09:30:35;;;;;;;13.98;8.82;;;;;;;19.52;84.78;95153.38;5107159;27;20050;-71
2021/07/24 09:33:10;;;;;;;20.95;11.07;;;;;;;19.52;86.45;95148.09;5109040;27;20433;-71
2021/07/24 09:35:54;;;;;;;24.30;11.45;;;;;;;19.21;88.87;95143.09;5105725;28;20084;-71
2021/07/24 09:38:34;;;;;;;18.35;11.93;;;;;;;18.68;94.43;95145.56;5107360;28;20047;-71
2021/07/24 09:41:05;;;;;;;20.70;11.07;;;;;;;18.75;93.51;95146.06;5105590;27;20035;-70
2021/07/24 09:43:42;;;;;;;16.10;9.85;;;;;;;18.56;95.11;95147.75;5110791;27;20039;-71
2021/07/24 09:46:20;;;;;;;20.65;11.13;;;;;;;18.24;97.63;95146.34;5109581;27;20428;-71
2021/07/24 09:48:48;;;;;;;18.65;11.93;;;;;;;18.02;100.00;95144.84;5110021;27;20047;-71
2021/07/24 09:51:31;;;;;;;14.82;11.25;;;;;;;17.89;98.06;95124.34;5112274;27;20046;-71
2021/07/24 09:53:59;;;;;;;16.35;9.13;;;;;;;18.17;96.17;95130.84;5113219;27;20126;-72
2021/07/24 09:56:42;;;;;;;13.80;9.88;;;;;;;18.38;96.35;95130.72;5109899;27;20039;-72
2021/07/24 09:59:23;;;;;;;14.88;11.50;;;;;;;18.42;98.23;95129.91;5106854;28;20039;-72
2021/07/24 10:02:03;;;;;;;16.85;9.48;;;;;;;18.54;96.13;95119.78;5107108;27;20047;-73
2021/07/24 10:04:33;;;;;;;15.45;10.00;;;;;;;18.66;96.77;95127.38;5106672;27;20051;-73
2021/07/24 10:07:06;;;;;;;18.90;9.98;;;;;;;19.01;97.71;95127.41;5108050;27;20048;-72
2021/07/24 10:09:35;;;;;;;16.38;8.35;;;;;;;19.53;95.87;95123.22;5109136;27;20046;-74
2021/07/24 10:12:08;;;;;;;12.18;8.35;;;;;;;20.48;92.29;95125.31;5110177;27;20038;-72
2021/07/24 10:14:35;;;;;;;11.60;8.13;;;;;;;21.35;84.92;95121.31;5105607;28;20058;-72
2021/07/24 10:17:03;;;;;;;9.98;5.70;;;;;;;22.07;80.80;95104.88;5105160;28;20067;-71
2021/07/24 10:19:29;;;;;;;9.35;6.55;;;;;;;22.89;72.32;95107.63;5104387;28;20051;-72
2021/07/24 10:21:58;;;;;;;9.98;5.57;;;;;;;23.65;66.97;95104.13;5105489;27;20050;-72
2021/07/24 10:24:26;;;;;;;7.28;5.15;;;;;;;24.05;61.75;95120.09;5106293;28;20535;-71
2021/07/24 10:27:02;;;;;;;6.90;5.35;;;;;;;23.93;56.50;95122.56;5106401;28;20039;-71
2021/07/24 10:29:35;;;;;;;6.82;4.97;;;;;;;23.79;55.06;95118.13;5104854;28;20035;-71
2021/07/24 10:32:07;;;;;;;8.90;7.10;;;;;;;23.73;52.74;95118.56;5103619;28;20040;-72
2021/07/24 10:34:36;;;;;;;6.10;4.68;;;;;;;23.62;50.83;95104.75;5104119;28;20044;-72
2021/07/24 10:37:41;;;;;;;5.72;4.85;;;;;;;23.89;52.63;95108.31;5104282;28;20040;-72
2021/07/24 10:40:19;;;;;;;5.75;4.78;;;;;;;24.28;48.00;95106.69;5103420;28;20058;-73
2021/07/24 10:42:53;;;;;;;6.18;4.53;;;;;;;24.91;47.96;95117.84;5104734;28;20865;-74
2021/07/24 10:45:37;;;;;;;5.85;4.63;;;;;;;25.46;44.89;95121.66;5105013;28;20085;-74
2021/07/24 10:48:12;;;;;;;7.03;5.57;;;;;;;25.69;51.82;95111.56;5104720;28;20428;-74
2021/07/24 10:50:57;;;;;;;8.48;5.50;;;;;;;25.44;49.34;95121.22;5103304;28;20035;-74
2021/07/24 10:53:27;;;;;;;6.20;5.32;;;;;;;25.13;58.06;95124.88;5104148;28;20054;-74
2021/07/24 10:55:56;;;;;;;7.82;5.13;;;;;;;24.95;55.72;95124.88;5103828;28;20047;-74
2021/07/24 10:58:25;;;;;;;6.40;4.72;;;;;;;25.15;49.83;95125.31;5104568;28;20508;-74
2021/07/24 11:00:57;;;;;;;5.32;4.55;;;;;;;25.10;52.21;95126.28;5105114;28;20043;-74
2021/07/24 11:03:34;;;;;;;5.88;4.95;;;;;;;25.17;55.52;95115.13;5104596;28;20612;-74
2021/07/24 11:06:30;;;;;;;7.22;5.07;;;;;;;25.36;45.29;95128.91;5104650;28;20451;-75
2021/07/24 11:09:09;;;;;;;5.32;4.82;;;;;;;25.63;44.61;95132.28;5107569;28;20135;-75
2021/07/24 11:11:43;;;;;;;5.43;4.60;;;;;;;25.85;45.29;95127.81;5107863;28;20067;-75
2021/07/24 11:14:38;;;;;;;5.30;4.63;;;;;;;26.25;46.21;95119.47;5107906;28;20070;-75
2021/07/24 11:17:05;;;;;;;8.13;4.35;;;;;;;26.80;41.75;95112.34;5107918;27;20051;-75
2021/07/24 11:20:05;;;;;;;5.28;4.63;;;;;;;26.86;41.85;95122.47;5107363;28;20035;-75
2021/07/24 11:22:32;;;;;;;5.43;4.93;;;;;;;27.50;39.54;95112.47;5107173;28;20043;-75
2021/07/24 11:24:59;;;;;;;7.38;4.57;;;;;;;27.96;40.92;95110.50;5107653;27;20050;-75
2021/07/24 11:27:26;;;;;;;5.88;4.65;;;;;;;27.74;36.52;95105.56;5108620;28;20039;-76
2021/07/24 11:29:54;;;;;;;6.65;4.40;;;;;;;27.71;43.44;95085.59;5107780;28;20048;-76
2021/07/24 11:32:27;;;;;;;7.15;4.78;;;;;;;27.70;36.00;95093.97;5108615;28;20048;-75
2021/07/24 11:35:05;;;;;;;5.20;4.70;;;;;;;27.81;39.90;95100.44;5108238;27;20047;-76
2021/07/24 11:37:42;;;;;;;8.43;5.32;;;;;;;28.00;36.14;95098.03;5106958;28;20058;-75